Bookmark and Share
Track history (hours):
 

MOL Explorer

Last reported at 2014-Apr-09 22:19 UTC. Time now 2014-Apr-19 06:56 UTC.
Position N 39°19' W 125°07'.
Warning: this ship's position is 9 days out of date.

Length 293 m; draft 12.6 m.

Type: Ship (hazmat cat A). MMSI: 372827000.

NotesDate/timePositionNaut miles runAvg speedWind from/ knotsBaromVisibWave heightAir tempDewpointWater temp
2014-Apr-09 22:19N 39°19' W 125°07'1615.3
2014-Apr-09 21:16N 39°08' W 124°52'4915.3
2014-Apr-09 18:05N 38°35' W 124°06'815.1
2014-Apr-09 17:33N 38°29' W 123°58'1515.2
2014-Apr-09 16:33N 38°20' W 123°43'1515.2
2014-Apr-09 15:33N 38°12' W 123°27'1515.2
2014-Apr-09 14:33N 38°02' W 123°12'1515.3
2014-Apr-09 13:33N 37°53' W 122°56'1414.2
2014-Apr-09 12:34N 37°46' W 122°41'1212.4
2014-Apr-09 11:33N 37°51' W 122°26'6 5.7
2014-Apr-09 10:34N 37°49' W 122°20'0 0.0
2014-Apr-09 09:32N 37°49' W 122°20'0 0.0
2014-Apr-09 08:32N 37°49' W 122°20'0 0.0
2014-Apr-09 07:32N 37°49' W 122°20'0 0.0
2014-Apr-09 06:32N 37°49' W 122°20'0 0.0
2014-Apr-09 05:32N 37°49' W 122°20'0 0.0
2014-Apr-09 04:32N 37°49' W 122°20'0 0.0
2014-Apr-09 03:32N 37°49' W 122°20'0 0.0
2014-Apr-09 02:32N 37°49' W 122°20'0 0.0
2014-Apr-09 01:32N 37°49' W 122°20'0 0.0
2014-Apr-09 00:32N 37°49' W 122°20'0 0.0
2014-Apr-08 23:32N 37°49' W 122°20'0 0.0
2014-Apr-08 22:32N 37°49' W 122°20'0 0.0
2014-Apr-08 21:32N 37°49' W 122°20'0 0.0
2014-Apr-08 20:32N 37°49' W 122°20'0 0.0
2014-Apr-08 19:32N 37°49' W 122°20'0 0.0
2014-Apr-08 18:32N 37°49' W 122°20'0 0.0
2014-Apr-08 17:32N 37°49' W 122°20'0 0.0
2014-Apr-08 16:32N 37°49' W 122°20'0 0.0
2014-Apr-08 15:32N 37°49' W 122°20'0 0.0
2014-Apr-08 14:32N 37°49' W 122°20'0 0.0
2014-Apr-08 13:32N 37°49' W 122°20'0 0.0
2014-Apr-08 12:32N 37°49' W 122°20'0 0.0
2014-Apr-08 11:32N 37°49' W 122°20'0 0.0
2014-Apr-08 10:32N 37°49' W 122°20'0 0.0
2014-Apr-08 09:32N 37°49' W 122°20'0 0.0
2014-Apr-08 08:32N 37°49' W 122°20'0 0.0
2014-Apr-08 07:32N 37°49' W 122°20'0 0.0
2014-Apr-08 06:32N 37°49' W 122°20'0 0.0
2014-Apr-08 05:32N 37°49' W 122°20'0 0.0
2014-Apr-08 04:32N 37°49' W 122°20'0 0.0
2014-Apr-08 03:32N 37°49' W 122°20'0 0.0
2014-Apr-08 02:32N 37°49' W 122°20'0 0.0
2014-Apr-08 01:32N 37°49' W 122°20'0 0.0
2014-Apr-08 00:32N 37°49' W 122°20'0 0.0
2014-Apr-07 23:33N 37°49' W 122°20'7 6.6
2014-Apr-07 22:33N 37°49' W 122°28'1312.9
2014-Apr-07 21:33N 37°43' W 122°43'1110.7
2014-Apr-07 20:33N 37°37' W 122°53'10 9.6
2014-Apr-07 19:33N 37°31' W 123°03'19 9.5
2014-Apr-07 17:33N 37°12' W 123°05'1413.6
2014-Apr-07 16:33N 36°58' W 123°04'1413.7
2014-Apr-07 15:33N 36°45' W 123°01'1313.5
2014-Apr-07 14:33N 36°31' W 123°00'1313.3
2014-Apr-07 13:33N 36°18' W 122°59'1413.6
2014-Apr-07 12:33N 36°05' W 122°58'1313.5
2014-Apr-07 11:33N 35°51' W 122°57'1313.4
2014-Apr-07 10:33N 35°38' W 122°56'5 4.7
2014-Apr-07 09:33N 35°33' W 122°55'2 1.7
2014-Apr-07 08:33N 35°35' W 122°54'2 1.7
2014-Apr-07 07:33N 35°36' W 122°54'2 1.6
2014-Apr-07 06:33N 35°38' W 122°54'2 1.7
2014-Apr-07 05:33N 35°40' W 122°53'2 1.8
2014-Apr-07 04:33N 35°41' W 122°53'2 2.0
2014-Apr-07 03:33N 35°43' W 122°52'2 2.2
2014-Apr-07 02:33N 35°46' W 122°52'2 2.1
2014-Apr-07 01:33N 35°48' W 122°51'2 2.0
2014-Apr-07 00:33N 35°50' W 122°51'2 2.1
2014-Apr-06 23:33N 35°52' W 122°51'2 1.9
2014-Apr-06 22:33N 35°54' W 122°51'2 1.7
2014-Apr-06 21:33N 35°55' W 122°51'2 1.8
2014-Apr-06 20:34N 35°57' W 122°51'2 1.7
2014-Apr-06 19:34N 35°59' W 122°51'2 1.7
2014-Apr-06 18:34N 36°00' W 122°52'2 1.5
2014-Apr-06 17:34N 36°02' W 122°52'2 1.6
2014-Apr-06 16:34N 36°04' W 122°52'2 1.7
2014-Apr-06 15:34N 36°05' W 122°52'3 2.9
2014-Apr-06 14:26N 36°04' W 122°48'1010.9
2014-Apr-06 13:33N 35°57' W 122°40'1110.8
2014-Apr-06 12:33N 35°49' W 122°30'1110.9
2014-Apr-06 11:34N 35°41' W 122°21'1110.9
2014-Apr-06 10:33N 35°34' W 122°12'1111.1
2014-Apr-06 09:34N 35°26' W 122°02'1111.0
2014-Apr-06 08:33N 35°18' W 121°53'1110.8
2014-Apr-06 07:33N 35°10' W 121°44'2211.0
2014-Apr-06 05:34N 34°54' W 121°25'5310.6
2014-Apr-06 00:33N 34°22' W 120°34'123 2.8
2014-Apr-04 04:33N 33°45' W 118°12'0 0.0
2014-Apr-04 03:24N 33°45' W 118°12'0 0.0
2014-Apr-04 02:18N 33°45' W 118°12'0 0.0
2014-Apr-04 01:18N 33°45' W 118°12'0 0.0
2014-Apr-03 23:06N 33°45' W 118°12'0 0.0
2014-Apr-03 22:24N 33°45' W 118°12'0 0.0
2014-Apr-03 21:33N 33°45' W 118°12'0 0.0
2014-Apr-03 20:33N 33°45' W 118°12'  

Dump ship's entire track history

sailing weather and tide predictions

MOL Explorer — 3EKT8 — position and weather